Time;durP1;ratioP1;P1;durP2;ratioP2;P2;SDS_P1;SDS_P2;PMS_P1;PMS_P2;Temp;Humidity;BMP_temperature;BMP_pressure;BME280_temperature;BME280_humidity;BME280_pressure;Samples;Min_cycle;Max_cycle;Signal;HPM_P1;HPM_P2
2021/04/27 00:00:27;;;;;;;0.70;0.40;;;;;;;;;;5052086;28;20400;-66
2021/04/27 00:02:53;;;;;;;0.70;0.50;;;;;;;;;;5036601;28;20417;-68
2021/04/27 00:05:19;;;;;;;0.87;0.70;;;;;;;;;;5031864;28;20485;-67
2021/04/27 00:07:46;;;;;;;0.70;0.40;;;;;;;;;;5031412;28;20399;-69
2021/04/27 00:10:13;;;;;;;0.70;0.50;;;;;;;;;;5030150;28;20462;-68
2021/04/27 00:12:39;;;;;;;0.70;0.50;;;;;;;;;;5031192;28;20974;-68
2021/04/27 00:15:09;;;;;;;0.80;0.60;;;;;;;;;;5031015;28;20501;-67
2021/04/27 00:17:35;;;;;;;0.90;0.60;;;;;;;;;;5029180;28;20486;-67
2021/04/27 00:20:01;;;;;;;0.90;0.80;;;;;;;;;;5030932;28;20929;-68
2021/04/27 00:22:27;;;;;;;0.80;0.50;;;;;;;;;;5031627;28;20416;-67
2021/04/27 00:24:53;;;;;;;0.70;0.40;;;;;;;;;;5031776;28;20450;-68
2021/04/27 00:27:19;;;;;;;0.70;0.50;;;;;;;;;;5031798;28;20410;-67
2021/04/27 00:29:45;;;;;;;1.00;0.73;;;;;;;;;;5030872;28;20416;-68
2021/04/27 00:32:11;;;;;;;1.20;0.50;;;;;;;;;;5030011;28;20462;-68
2021/04/27 00:34:37;;;;;;;1.33;0.60;;;;;;;;;;5031412;28;20482;-67
2021/04/27 00:37:03;;;;;;;1.10;0.73;;;;;;;;;;5031097;28;20404;-68
2021/04/27 00:39:29;;;;;;;0.70;0.40;;;;;;;;;;5030897;28;20972;-67
2021/04/27 00:41:55;;;;;;;0.70;0.50;;;;;;;;;;5031150;28;20415;-68
2021/04/27 00:44:21;;;;;;;0.70;0.50;;;;;;;;;;5030826;28;20719;-68
2021/04/27 00:46:46;;;;;;;0.70;0.50;;;;;;;;;;5031160;28;20873;-69
2021/04/27 00:49:12;;;;;;;0.70;0.50;;;;;;;;;;5030140;28;20942;-67
2021/04/27 00:51:38;;;;;;;1.53;1.10;;;;;;;;;;5013161;28;21758;-67
2021/04/27 00:54:07;;;;;;;0.70;0.50;;;;;;;;;;5031343;28;20497;-68
2021/04/27 00:56:33;;;;;;;0.70;0.40;;;;;;;;;;5030722;28;20554;-68
2021/04/27 00:58:59;;;;;;;0.90;0.60;;;;;;;;;;5045714;28;20411;-69
2021/04/27 01:01:25;;;;;;;0.70;0.50;;;;;;;;;;5031764;28;20419;-67
2021/04/27 01:03:52;;;;;;;0.80;0.50;;;;;;;;;;5030336;28;20404;-68
2021/04/27 01:06:18;;;;;;;0.70;0.50;;;;;;;;;;5029054;28;20443;-67
2021/04/27 01:08:44;;;;;;;0.70;0.57;;;;;;;;;;5031134;28;20403;-67
2021/04/27 01:11:10;;;;;;;0.70;0.60;;;;;;;;;;5030546;28;20481;-67
2021/04/27 01:13:41;;;;;;;0.90;0.80;;;;;;;;;;5030683;28;20455;-67
2021/04/27 01:16:07;;;;;;;2.60;0.90;;;;;;;;;;5030709;28;20423;-67
2021/04/27 01:18:34;;;;;;;0.70;0.60;;;;;;;;;;5030552;28;20485;-68
2021/04/27 01:21:01;;;;;;;0.70;0.50;;;;;;;;;;5030836;28;20413;-67
2021/04/27 01:23:43;;;;;;;0.70;0.50;;;;;;;;;;5030767;28;20825;-67
2021/04/27 01:26:13;;;;;;;0.70;0.47;;;;;;;;;;5030837;28;20424;-68
2021/04/27 01:28:39;;;;;;;0.70;0.40;;;;;;;;;;5029506;28;20416;-67
2021/04/27 01:31:05;;;;;;;0.70;0.50;;;;;;;;;;5030428;28;20766;-67
2021/04/27 01:33:32;;;;;;;0.70;0.43;;;;;;;;;;5030736;28;20554;-67
2021/04/27 01:36:00;;;;;;;0.90;0.77;;;;;;;;;;5029314;28;20459;-68
2021/04/27 01:38:26;;;;;;;2.10;0.60;;;;;;;;;;5030183;28;20503;-69
2021/04/27 01:40:52;;;;;;;0.70;0.50;;;;;;;;;;5030217;28;20407;-67
2021/04/27 01:43:19;;;;;;;0.80;0.70;;;;;;;;;;5030012;28;20415;-67
2021/04/27 01:45:46;;;;;;;0.70;0.50;;;;;;;;;;5030330;28;20424;-68
2021/04/27 01:48:12;;;;;;;0.80;0.50;;;;;;;;;;5030214;28;20510;-67
2021/04/27 01:50:41;;;;;;;0.70;0.50;;;;;;;;;;5030187;28;20902;-68
2021/04/27 01:53:07;;;;;;;1.17;0.70;;;;;;;;;;5030091;28;20459;-68
2021/04/27 01:55:33;;;;;;;0.70;0.50;;;;;;;;;;5030158;28;20431;-68
2021/04/27 01:57:59;;;;;;;0.70;0.50;;;;;;;;;;5031424;28;20415;-68
2021/04/27 02:00:25;;;;;;;0.70;0.50;;;;;;;;;;5029397;28;20423;-67
2021/04/27 02:02:52;;;;;;;8.60;0.90;;;;;;;;;;5031351;28;20412;-67
2021/04/27 02:05:18;;;;;;;0.70;0.50;;;;;;;;;;5030830;28;20531;-67
2021/04/27 02:07:44;;;;;;;0.70;0.50;;;;;;;;;;5031729;28;20755;-69
2021/04/27 02:10:11;;;;;;;0.90;0.53;;;;;;;;;;5030745;28;20411;-69
2021/04/27 02:12:39;;;;;;;1.50;0.70;;;;;;;;;;5030610;28;20900;-67
2021/04/27 02:15:05;;;;;;;0.70;0.50;;;;;;;;;;5033426;28;20438;-67
2021/04/27 02:17:39;;;;;;;1.00;0.70;;;;;;;;;;5034753;28;20408;-69
2021/04/27 02:20:05;;;;;;;0.70;0.50;;;;;;;;;;5034547;28;20420;-67
2021/04/27 02:22:31;;;;;;;8.73;5.77;;;;;;;;;;5032671;28;20979;-68
2021/04/27 02:25:01;;;;;;;15.13;10.57;;;;;;;;;;5033111;28;20431;-68
2021/04/27 02:27:27;;;;;;;;;;;;;;;;;;5034710;28;20759;-67
2021/04/27 02:29:52;;;;;;;;;;;;;;;;;;5034315;28;19913;-67
2021/04/27 02:32:18;;;;;;;;;;;;;;;;;;5034058;28;19913;-68
2021/04/27 02:34:44;;;;;;;;;;;;;;;;;;5033843;28;19960;-67
2021/04/27 02:37:10;;;;;;;;;;;;;;;;;;5034290;28;19983;-67
2021/04/27 02:39:36;;;;;;;;;;;;;;;;;;5033666;28;19911;-68
2021/04/27 02:42:02;;;;;;;;;;;;;;;;;;5033531;28;20383;-67
2021/04/27 02:44:28;;;;;;;;;;;;;;;;;;5032617;28;20370;-66
2021/04/27 02:46:53;;;;;;;;;;;;;;;;;;5033430;28;19908;-68
2021/04/27 02:49:19;;;;;;;;;;;;;;;;;;5033408;28;20295;-68
2021/04/27 02:51:45;;;;;;;;;;;;;;;;;;5032031;28;20090;-67
2021/04/27 02:54:11;;;;;;;;;;;;;;;;;;5033344;28;19905;-67
2021/04/27 02:56:37;;;;;;;;;;;;;;;;;;5033649;28;19909;-67
2021/04/27 02:59:03;;;;;;;;;;;;;;;;;;5048262;28;20367;-68
2021/04/27 03:01:29;;;;;;;;;;;;;;;;;;5051992;28;19908;-67
2021/04/27 03:03:54;;;;;;;;;;;;;;;;;;5033359;28;19944;-67
2021/04/27 03:06:23;;;;;;;;;;;;;;;;;;5029716;22;19921;-72
2021/04/27 03:08:48;;;;;;;;;;;;;;;;;;5013130;28;20003;-72
2021/04/27 03:11:14;;;;;;;;;;;;;;;;;;5002594;28;19921;-73
2021/04/27 03:13:40;;;;;;;;;;;;;;;;;;5014006;28;19917;-71
2021/04/27 03:16:06;;;;;;;;;;;;;;;;;;5015191;28;19913;-73
2021/04/27 03:18:32;;;;;;;;;;;;;;;;;;4999030;28;19914;-72
2021/04/27 03:20:58;;;;;;;;;;;;;;;;;;4995596;28;20279;-72
2021/04/27 03:23:24;;;;;;;;;;;;;;;;;;4999973;28;19909;-73
2021/04/27 03:25:50;;;;;;;;;;;;;;;;;;5013942;28;19912;-73
2021/04/27 03:28:16;;;;;;;;;;;;;;;;;;5002624;28;19917;-71
2021/04/27 03:30:41;;;;;;;;;;;;;;;;;;4994231;28;20407;-72
2021/04/27 03:33:07;;;;;;;;;;;;;;;;;;4995503;28;19921;-72
2021/04/27 03:35:33;;;;;;;;;;;;;;;;;;4995462;28;19909;-71
2021/04/27 03:37:59;;;;;;;;;;;;;;;;;;4997102;28;19913;-72
2021/04/27 03:40:25;;;;;;;;;;;;;;;;;;4993929;28;19933;-73
2021/04/27 03:42:51;;;;;;;;;;;;;;;;;;4996783;28;20317;-71
2021/04/27 03:45:17;;;;;;;;;;;;;;;;;;5000304;28;20118;-70
2021/04/27 03:47:42;;;;;;;;;;;;;;;;;;4999923;28;19906;-71
2021/04/27 03:50:08;;;;;;;;;;;;;;;;;;5001465;28;19920;-72
2021/04/27 03:52:34;;;;;;;;;;;;;;;;;;4998629;28;20393;-72
2021/04/27 03:55:00;;;;;;;;;;;;;;;;;;4998144;28;19972;-72
2021/04/27 03:57:26;;;;;;;;;;;;;;;;;;4999428;28;19925;-74
2021/04/27 03:59:52;;;;;;;;;;;;;;;;;;5015081;28;19971;-72
2021/04/27 04:02:18;;;;;;;;;;;;;;;;;;5012101;28;19920;-72
2021/04/27 04:04:43;;;;;;;;;;;;;;;;;;4998572;28;19960;-73
2021/04/27 04:07:09;;;;;;;;;;;;;;;;;;4998982;28;20035;-72
2021/04/27 04:09:35;;;;;;;;;;;;;;;;;;4999077;28;19989;-73
2021/04/27 04:12:01;;;;;;;;;;;;;;;;;;4990151;28;19933;-71
2021/04/27 04:14:27;;;;;;;;;;;;;;;;;;4987282;28;19942;-72
2021/04/27 04:16:53;;;;;;;;;;;;;;;;;;4983333;28;19906;-71
2021/04/27 04:19:19;;;;;;;;;;;;;;;;;;4983884;28;19913;-72
2021/04/27 04:21:44;;;;;;;;;;;;;;;;;;4983701;28;19913;-73
2021/04/27 04:24:10;;;;;;;;;;;;;;;;;;4983005;28;20393;-71
2021/04/27 04:26:37;;;;;;;;;;;;;;;;;;4985510;28;19912;-72
2021/04/27 04:29:03;;;;;;;;;;;;;;;;;;4978966;28;19910;-71
2021/04/27 04:31:29;;;;;;;;;;;;;;;;;;4984722;28;19933;-70
2021/04/27 04:33:55;;;;;;;;;;;;;;;;;;4983888;28;19957;-71
2021/04/27 04:36:21;;;;;;;;;;;;;;;;;;4978342;28;20375;-71
2021/04/27 04:38:47;;;;;;;;;;;;;;;;;;4987002;28;20321;-72
2021/04/27 04:41:13;;;;;;;;;;;;;;;;;;4987672;28;19910;-73
2021/04/27 04:43:39;;;;;;;;;;;;;;;;;;4986867;28;19910;-72
2021/04/27 04:46:04;;;;;;;;;;;;;;;;;;4983924;28;19937;-72
2021/04/27 04:48:30;;;;;;;;;;;;;;;;;;4983237;28;20521;-73
2021/04/27 04:50:56;;;;;;;;;;;;;;;;;;4991163;28;20015;-73
2021/04/27 04:53:22;;;;;;;;;;;;;;;;;;4996197;28;19921;-72
2021/04/27 04:55:48;;;;;;;;;;;;;;;;;;5000081;28;19945;-71
2021/04/27 04:58:14;;;;;;;;;;;;;;;;;;4993119;28;19906;-73
2021/04/27 05:00:40;;;;;;;;;;;;;;;;;;4989567;28;19944;-71
2021/04/27 05:03:05;;;;;;;;;;;;;;;;;;4982096;28;19909;-73
2021/04/27 05:05:31;;;;;;;;;;;;;;;;;;4975241;28;19914;-74
2021/04/27 05:08:01;;;;;;;;;;;;;;;;;;4985025;28;19910;-70
2021/04/27 05:10:27;;;;;;;;;;;;;;;;;;4985034;28;20004;-73
2021/04/27 05:12:53;;;;;;;;;;;;;;;;;;4993357;28;20043;-70
2021/04/27 05:15:19;;;;;;;;;;;;;;;;;;4993782;28;19921;-70
2021/04/27 05:17:45;;;;;;;;;;;;;;;;;;4992886;28;19937;-71
2021/04/27 05:20:11;;;;;;;;;;;;;;;;;;4981702;28;20025;-72
2021/04/27 05:22:36;;;;;;;;;;;;;;;;;;4991474;28;19936;-73
2021/04/27 05:25:02;;;;;;;;;;;;;;;;;;4993559;28;19906;-70
2021/04/27 05:27:28;;;;;;;;;;;;;;;;;;4988893;28;20439;-72
2021/04/27 05:29:54;;;;;;;;;;;;;;;;;;4984294;28;19933;-71
2021/04/27 05:32:20;;;;;;;;;;;;;;;;;;4985170;28;20000;-71
2021/04/27 05:34:46;;;;;;;;;;;;;;;;;;4981327;28;19918;-71
2021/04/27 05:37:12;;;;;;;;;;;;;;;;;;4985018;28;19933;-71
2021/04/27 05:39:38;;;;;;;1.30;0.95;;;;;;;;;;4983880;28;20744;-70
2021/04/27 05:42:04;;;;;;;0.70;0.50;;;;;;;;;;4984114;28;20178;-70
2021/04/27 05:44:30;;;;;;;0.70;0.50;;;;;;;;;;4988608;28;20413;-69
2021/04/27 05:46:58;;;;;;;17.97;14.57;;;;;;;;;;4990819;28;20438;-70
2021/04/27 05:49:25;;;;;;;1.00;0.70;;;;;;;;;;4989042;28;20436;-69
2021/04/27 05:51:51;;;;;;;0.80;0.60;;;;;;;;;;4992941;28;20420;-69
2021/04/27 05:54:17;;;;;;;0.80;0.63;;;;;;;;;;4992045;28;20420;-70
2021/04/27 05:56:43;;;;;;;0.70;0.50;;;;;;;;;;4998986;28;20600;-69
2021/04/27 05:59:10;;;;;;;0.80;0.60;;;;;;;;;;5016792;28;20416;-67
2021/04/27 06:01:36;;;;;;;0.87;0.70;;;;;;;;;;5010310;28;20401;-67
2021/04/27 06:04:02;;;;;;;0.80;0.77;;;;;;;;;;5000746;28;20467;-68
2021/04/27 06:06:28;;;;;;;3.77;1.17;;;;;;;;;;4995827;28;20445;-69
2021/04/27 06:08:54;;;;;;;0.70;0.50;;;;;;;;;;5008039;28;20424;-69
2021/04/27 06:11:22;;;;;;;1.20;0.60;;;;;;;;;;5007955;28;20409;-69
2021/04/27 06:13:48;;;;;;;1.50;1.40;;;;;;;;;;5004228;28;20449;-69
2021/04/27 06:16:14;;;;;;;1.07;0.90;;;;;;;;;;4999562;28;20438;-70
2021/04/27 06:18:40;;;;;;;1.63;0.90;;;;;;;;;;4997859;28;20420;-69
2021/04/27 06:21:07;;;;;;;0.70;0.60;;;;;;;;;;4996568;28;20432;-68
2021/04/27 06:23:33;;;;;;;0.70;0.53;;;;;;;;;;5007262;28;20404;-68
2021/04/27 06:25:59;;;;;;;0.70;0.60;;;;;;;;;;4999060;28;20437;-69
2021/04/27 06:28:25;;;;;;;10.63;9.80;;;;;;;;;;4998807;28;20417;-70
2021/04/27 06:30:51;;;;;;;5.07;1.63;;;;;;;;;;4997814;28;20405;-70
2021/04/27 06:33:17;;;;;;;0.70;0.50;;;;;;;;;;4978842;28;20462;-71
2021/04/27 06:35:43;;;;;;;0.70;0.50;;;;;;;;;;4978925;28;20422;-68
2021/04/27 06:38:10;;;;;;;0.70;0.47;;;;;;;;;;4978261;28;20447;-69
2021/04/27 06:40:37;;;;;;;0.90;0.70;;;;;;;;;;4979019;28;20414;-69
2021/04/27 06:43:03;;;;;;;1.63;0.70;;;;;;;;;;4981075;28;20442;-67
2021/04/27 06:45:29;;;;;;;0.70;0.50;;;;;;;;;;4980141;28;20422;-68
2021/04/27 06:47:55;;;;;;;0.70;0.57;;;;;;;;;;4979372;28;20411;-69
2021/04/27 06:50:21;;;;;;;57.93;52.43;;;;;;;;;;4977908;28;20434;-68
2021/04/27 06:52:47;;;;;;;0.70;0.50;;;;;;;;;;4979723;28;20491;-69
2021/04/27 06:55:13;;;;;;;1.63;1.13;;;;;;;;;;4979520;28;20415;-67
2021/04/27 06:57:39;;;;;;;0.70;0.50;;;;;;;;;;4985515;28;20413;-69
2021/04/27 07:00:06;;;;;;;0.90;0.70;;;;;;;;;;5017567;28;20835;-69
2021/04/27 07:02:32;;;;;;;0.70;0.50;;;;;;;;;;5001668;28;20410;-69
2021/04/27 07:04:58;;;;;;;0.97;0.60;;;;;;;;;;4998492;28;20407;-69
2021/04/27 07:07:24;;;;;;;0.70;0.40;;;;;;;;;;4998012;28;20407;-70
2021/04/27 07:09:50;;;;;;;0.70;0.50;;;;;;;;;;4988858;28;21144;-69
2021/04/27 07:12:16;;;;;;;0.80;0.70;;;;;;;;;;4998979;28;20975;-68
2021/04/27 07:14:42;;;;;;;1.33;1.03;;;;;;;;;;4998583;28;20814;-69
2021/04/27 07:17:08;;;;;;;1.63;1.53;;;;;;;;;;4998507;28;20399;-69
2021/04/27 07:19:34;;;;;;;0.80;0.67;;;;;;;;;;4998658;28;20775;-68
2021/04/27 07:22:01;;;;;;;0.80;0.50;;;;;;;;;;5001161;28;20405;-69
2021/04/27 07:24:27;;;;;;;0.70;0.50;;;;;;;;;;5000227;28;20408;-69
2021/04/27 07:26:53;;;;;;;0.80;0.50;;;;;;;;;;4998892;28;21151;-69
2021/04/27 07:29:19;;;;;;;0.80;0.60;;;;;;;;;;4996122;28;20879;-69
2021/04/27 07:31:45;;;;;;;1.30;0.60;;;;;;;;;;4997439;28;20484;-69
2021/04/27 07:34:11;;;;;;;0.80;0.57;;;;;;;;;;4996030;28;20456;-70
2021/04/27 07:36:37;;;;;;;1.47;0.60;;;;;;;;;;4997367;28;20421;-69
2021/04/27 07:39:06;;;;;;;1.33;0.60;;;;;;;;;;4996900;28;20401;-69
2021/04/27 07:41:33;;;;;;;0.70;0.60;;;;;;;;;;4997590;28;20408;-70
2021/04/27 07:43:59;;;;;;;0.70;0.40;;;;;;;;;;4997615;28;20409;-68
2021/04/27 07:46:25;;;;;;;0.93;0.67;;;;;;;;;;4998174;28;20435;-68
2021/04/27 07:48:51;;;;;;;0.70;0.50;;;;;;;;;;4996824;28;20416;-68
2021/04/27 07:51:17;;;;;;;0.70;0.40;;;;;;;;;;4997228;28;20405;-68
2021/04/27 07:53:43;;;;;;;0.70;0.60;;;;;;;;;;4997577;28;20460;-69
2021/04/27 07:56:09;;;;;;;0.70;0.50;;;;;;;;;;4996718;28;20789;-68
2021/04/27 07:58:35;;;;;;;1.10;1.00;;;;;;;;;;4995859;28;20493;-68
2021/04/27 08:01:01;;;;;;;0.80;0.50;;;;;;;;;;4996529;28;20456;-69
2021/04/27 08:03:28;;;;;;;0.70;0.50;;;;;;;;;;5003045;28;20428;-68
2021/04/27 08:05:54;;;;;;;0.73;0.50;;;;;;;;;;4994509;28;20468;-67
2021/04/27 08:08:20;;;;;;;0.70;0.50;;;;;;;;;;4996265;28;20533;-67
2021/04/27 08:10:46;;;;;;;1.30;0.80;;;;;;;;;;4997401;28;20439;-66
2021/04/27 08:13:12;;;;;;;0.80;0.80;;;;;;;;;;4996002;28;21033;-67
2021/04/27 08:15:40;;;;;;;1.00;0.70;;;;;;;;;;4995996;28;20445;-68
2021/04/27 08:18:06;;;;;;;0.80;0.60;;;;;;;;;;4997919;28;20420;-69
2021/04/27 08:20:33;;;;;;;0.70;0.40;;;;;;;;;;4997753;28;20445;-68
2021/04/27 08:23:00;;;;;;;0.90;0.67;;;;;;;;;;4997097;28;20421;-69
2021/04/27 08:25:26;;;;;;;1.10;0.87;;;;;;;;;;4997242;28;20428;-68
2021/04/27 08:27:52;;;;;;;1.87;0.60;;;;;;;;;;4995362;28;20440;-68
2021/04/27 08:30:20;;;;;;;1.00;0.73;;;;;;;;;;4994767;28;20911;-68
2021/04/27 08:32:47;;;;;;;0.70;0.50;;;;;;;;;;4995202;28;20463;-69
2021/04/27 08:35:13;;;;;;;0.70;0.40;;;;;;;;;;4997648;28;20531;-69
2021/04/27 08:37:40;;;;;;;1.93;0.70;;;;;;;;;;4992420;28;20402;-70
2021/04/27 08:40:07;;;;;;;0.80;0.60;;;;;;;;;;4995284;28;20474;-70
2021/04/27 08:42:34;;;;;;;0.70;0.50;;;;;;;;;;4989727;28;20425;-68
2021/04/27 08:45:00;;;;;;;0.70;0.50;;;;;;;;;;4993812;28;20505;-68
2021/04/27 08:47:28;;;;;;;0.70;0.40;;;;;;;;;;4993779;28;20432;-69
2021/04/27 08:49:54;;;;;;;0.97;0.87;;;;;;;;;;4994403;28;20436;-69
2021/04/27 08:52:20;;;;;;;0.70;0.50;;;;;;;;;;4991094;28;20867;-68
2021/04/27 08:54:46;;;;;;;2.27;1.87;;;;;;;;;;4991159;28;20485;-66
2021/04/27 08:57:13;;;;;;;0.70;0.50;;;;;;;;;;4992236;28;20429;-67
2021/04/27 08:59:40;;;;;;;0.70;0.50;;;;;;;;;;4994707;28;20419;-68
2021/04/27 09:02:06;;;;;;;1.00;0.50;;;;;;;;;;4992173;28;20494;-67
2021/04/27 09:04:38;;;;;;;0.90;0.70;;;;;;;;;;4989364;28;20400;-70
2021/04/27 09:07:11;;;;;;;0.90;0.77;;;;;;;;;;4991153;28;20443;-68
2021/04/27 09:09:47;;;;;;;1.30;0.60;;;;;;;;;;4987819;28;20591;-68
2021/04/27 09:12:16;;;;;;;0.70;0.50;;;;;;;;;;4989006;28;20491;-68
2021/04/27 09:14:42;;;;;;;1.13;0.87;;;;;;;;;;4999294;23;20504;-68
2021/04/27 09:17:10;;;;;;;1.17;0.60;;;;;;;;;;5004065;28;20902;-68
2021/04/27 09:19:36;;;;;;;1.70;0.80;;;;;;;;;;5008952;28;20416;-68
2021/04/27 09:22:02;;;;;;;0.70;0.50;;;;;;;;;;5009723;28;20428;-68
2021/04/27 09:24:27;;;;;;;0.80;0.50;;;;;;;;;;4998985;28;20432;-68
2021/04/27 09:26:53;;;;;;;0.80;0.50;;;;;;;;;;4996351;28;20807;-68
2021/04/27 09:29:36;;;;;;;0.70;0.40;;;;;;;;;;4996951;28;20474;-68
2021/04/27 09:32:02;;;;;;;0.70;0.40;;;;;;;;;;4996051;28;20464;-68
2021/04/27 09:34:30;;;;;;;0.70;0.60;;;;;;;;;;4994163;28;20885;-68
2021/04/27 09:37:07;;;;;;;0.70;0.50;;;;;;;;;;4989671;28;20404;-68
2021/04/27 09:39:32;;;;;;;0.70;0.47;;;;;;;;;;4989617;28;20812;-68
2021/04/27 09:42:00;;;;;;;0.70;0.40;;;;;;;;;;4990165;28;20412;-68
2021/04/27 09:44:27;;;;;;;0.70;0.50;;;;;;;;;;4989863;28;20792;-68
2021/04/27 09:47:06;;;;;;;0.80;0.50;;;;;;;;;;4989614;28;20430;-68
2021/04/27 09:49:31;;;;;;;0.80;0.60;;;;;;;;;;4989840;28;20418;-70
2021/04/27 09:51:57;;;;;;;0.70;0.50;;;;;;;;;;4991925;28;20380;-70
2021/04/27 09:54:23;;;;;;;0.70;0.50;;;;;;;;;;4991342;28;20435;-70
2021/04/27 09:56:51;;;;;;;0.70;0.50;;;;;;;;;;4989370;28;20388;-69
2021/04/27 09:59:22;;;;;;;0.70;0.50;;;;;;;;;;4992400;28;20403;-69
2021/04/27 10:01:49;;;;;;;0.70;0.50;;;;;;;;;;4988987;28;20400;-69
2021/04/27 10:04:15;;;;;;;0.77;0.57;;;;;;;;;;4995401;28;20404;-68
2021/04/27 10:06:42;;;;;;;0.70;0.40;;;;;;;;;;4989831;28;20417;-69
2021/04/27 10:09:08;;;;;;;0.70;0.50;;;;;;;;;;4989050;28;20772;-69
2021/04/27 10:11:35;;;;;;;8.40;0.97;;;;;;;;;;4990235;28;20493;-69
2021/04/27 10:14:02;;;;;;;1.20;0.90;;;;;;;;;;4988357;28;20493;-70
2021/04/27 10:16:28;;;;;;;0.70;0.40;;;;;;;;;;4993846;28;20539;-70
2021/04/27 10:18:54;;;;;;;0.70;0.50;;;;;;;;;;4998158;28;20520;-71
2021/04/27 10:21:20;;;;;;;0.90;0.50;;;;;;;;;;4989247;28;20636;-69
2021/04/27 10:23:53;;;;;;;0.80;0.73;;;;;;;;;;4989597;28;20400;-70
2021/04/27 10:26:20;;;;;;;0.70;0.43;;;;;;;;;;4989443;28;20430;-70
2021/04/27 10:28:56;;;;;;;0.70;0.40;;;;;;;;;;4989122;28;20418;-70
2021/04/27 10:31:22;;;;;;;0.70;0.50;;;;;;;;;;4989489;28;20456;-70
2021/04/27 10:33:58;;;;;;;0.80;0.43;;;;;;;;;;4988574;28;20431;-69
2021/04/27 10:36:25;;;;;;;0.70;0.50;;;;;;;;;;4990161;28;20483;-70
2021/04/27 10:38:58;;;;;;;0.70;0.50;;;;;;;;;;4993245;28;20400;-70
2021/04/27 10:41:41;;;;;;;1.93;0.70;;;;;;;;;;4993479;28;20425;-69
2021/04/27 10:44:09;;;;;;;0.70;0.50;;;;;;;;;;4993847;28;20421;-69
2021/04/27 10:46:35;;;;;;;1.87;1.00;;;;;;;;;;4993616;28;20388;-68
2021/04/27 10:49:09;;;;;;;1.10;0.90;;;;;;;;;;4996428;28;20815;-71
2021/04/27 10:51:44;;;;;;;1.00;0.73;;;;;;;;;;4993536;28;20884;-69
2021/04/27 10:54:14;;;;;;;1.00;0.90;;;;;;;;;;4992211;28;20496;-68
2021/04/27 10:56:43;;;;;;;22.97;22.07;;;;;;;;;;4992471;28;20388;-68
2021/04/27 10:59:13;;;;;;;1.67;1.57;;;;;;;;;;4992026;28;20833;-70
2021/04/27 11:01:41;;;;;;;115.37;110.67;;;;;;;;;;4992483;28;20402;-69
2021/04/27 11:04:08;;;;;;;0.80;0.73;;;;;;;;;;4993763;28;20428;-69
2021/04/27 11:06:34;;;;;;;0.70;0.50;;;;;;;;;;4993514;28;20376;-69
2021/04/27 11:09:11;;;;;;;0.77;0.53;;;;;;;;;;4998231;28;20399;-69
2021/04/27 11:11:37;;;;;;;0.80;0.70;;;;;;;;;;5002450;28;20865;-69
2021/04/27 11:14:12;;;;;;;0.77;0.60;;;;;;;;;;5001754;28;20458;-69
2021/04/27 11:16:39;;;;;;;0.97;0.87;;;;;;;;;;4995000;28;20438;-70
2021/04/27 11:19:20;;;;;;;4.30;4.10;;;;;;;;;;5010969;28;20379;-68
2021/04/27 11:21:50;;;;;;;2.17;2.07;;;;;;;;;;5012659;28;20434;-67
2021/04/27 11:24:33;;;;;;;8.10;7.80;;;;;;;;;;5004764;28;20924;-70
2021/04/27 11:27:01;;;;;;;61.37;58.80;;;;;;;;;;4998122;28;20387;-68
2021/04/27 11:29:28;;;;;;;1.13;1.00;;;;;;;;;;5003451;28;20554;-70
2021/04/27 11:31:56;;;;;;;3.47;3.37;;;;;;;;;;4992985;28;20437;-71
2021/04/27 11:34:23;;;;;;;1.00;0.90;;;;;;;;;;4992586;28;20425;-68
2021/04/27 11:36:49;;;;;;;1.43;1.33;;;;;;;;;;4993086;28;20489;-71
2021/04/27 11:39:16;;;;;;;1.73;1.63;;;;;;;;;;4992400;28;20483;-69
2021/04/27 11:41:44;;;;;;;1.10;1.00;;;;;;;;;;4998370;28;20745;-70
2021/04/27 11:44:10;;;;;;;0.90;0.80;;;;;;;;;;4995944;28;20785;-68
2021/04/27 11:46:52;;;;;;;2.50;2.10;;;;;;;;;;4991679;28;20388;-70
2021/04/27 11:49:18;;;;;;;4.23;4.03;;;;;;;;;;4992458;28;20372;-70
2021/04/27 11:51:44;;;;;;;8.57;8.23;;;;;;;;;;4992449;28;20413;-71
2021/04/27 11:54:12;;;;;;;1.90;1.80;;;;;;;;;;4991628;28;20806;-70
2021/04/27 11:56:50;;;;;;;3.67;3.47;;;;;;;;;;4991894;28;20412;-68
2021/04/27 11:59:22;;;;;;;6.43;5.80;;;;;;;;;;4991389;28;20418;-69
2021/04/27 12:01:48;;;;;;;4.23;4.03;;;;;;;;;;4991631;28;20523;-69
2021/04/27 12:04:16;;;;;;;1.50;1.40;;;;;;;;;;4992451;28;20376;-68
2021/04/27 12:06:57;;;;;;;4.17;4.03;;;;;;;;;;4993396;28;20767;-69
2021/04/27 12:09:23;;;;;;;511.43;483.80;;;;;;;;;;5000199;28;20425;-70
2021/04/27 12:11:49;;;;;;;54.83;52.83;;;;;;;;;;5000938;28;20446;-69
2021/04/27 12:14:17;;;;;;;80.27;77.40;;;;;;;;;;4998614;28;20462;-69
2021/04/27 12:16:44;;;;;;;36.93;35.43;;;;;;;;;;4992276;28;20416;-71
2021/04/27 12:19:10;;;;;;;2.60;2.50;;;;;;;;;;5002096;28;20513;-69
2021/04/27 12:21:39;;;;;;;2.63;2.53;;;;;;;;;;4981840;28;20477;-69
2021/04/27 12:24:06;;;;;;;28.10;27.00;;;;;;;;;;4991955;28;20774;-69
2021/04/27 12:26:33;;;;;;;18.67;17.97;;;;;;;;;;4992273;28;20425;-69
2021/04/27 12:28:59;;;;;;;14.70;14.00;;;;;;;;;;4992555;28;20389;-70
2021/04/27 12:31:26;;;;;;;13.10;12.60;;;;;;;;;;4990920;28;20409;-69
2021/04/27 12:33:55;;;;;;;27.70;26.63;;;;;;;;;;4988214;28;20464;-69
2021/04/27 12:36:31;;;;;;;34.47;33.17;;;;;;;;;;4989280;28;20430;-70
2021/04/27 12:38:58;;;;;;;51.93;49.93;;;;;;;;;;4987277;28;20425;-70
2021/04/27 12:41:40;;;;;;;224.67;214.77;;;;;;;;;;4988935;28;20406;-70
2021/04/27 12:44:25;;;;;;;321.57;306.90;;;;;;;;;;4991797;28;20428;-69
2021/04/27 12:46:51;;;;;;;404.50;383.70;;;;;;;;;;4996927;28;20429;-69
2021/04/27 12:49:17;;;;;;;488.00;459.00;;;;;;;;;;5000152;28;20380;-69
2021/04/27 12:51:43;;;;;;;480.63;451.87;;;;;;;;;;5000506;28;20412;-70
2021/04/27 12:54:29;;;;;;;515.10;484.50;;;;;;;;;;4990973;28;20447;-70
2021/04/27 12:57:02;;;;;;;626.80;561.07;;;;;;;;;;4999541;28;20889;-70
2021/04/27 12:59:32;;;;;;;592.23;553.07;;;;;;;;;;5000527;28;20409;-69
2021/04/27 13:02:01;;;;;;;614.60;574.30;;;;;;;;;;5000652;28;20397;-71
2021/04/27 13:04:30;;;;;;;605.67;560.27;;;;;;;;;;4997268;28;20418;-69
2021/04/27 13:06:57;;;;;;;640.23;586.47;;;;;;;;;;5000730;28;20974;-70
2021/04/27 13:09:27;;;;;;;693.70;625.53;;;;;;;;;;4999298;28;20449;-69
2021/04/27 13:11:56;;;;;;;645.90;577.80;;;;;;;;;;4997626;28;20452;-70
2021/04/27 13:14:23;;;;;;;687.30;618.00;;;;;;;;;;4997303;28;20909;-70
2021/04/27 13:16:49;;;;;;;637.13;569.77;;;;;;;;;;4998599;28;20444;-69
2021/04/27 13:19:16;;;;;;;677.53;610.27;;;;;;;;;;4990591;28;20437;-70
2021/04/27 13:21:43;;;;;;;654.47;586.13;;;;;;;;;;5000602;28;20421;-70
2021/04/27 13:24:10;;;;;;;575.13;489.30;;;;;;;;;;5000381;28;20420;-70
2021/04/27 13:26:36;;;;;;;596.30;531.70;;;;;;;;;;4990134;28;20405;-69
2021/04/27 13:29:02;;;;;;;563.63;459.27;;;;;;;;;;4999208;28;20999;-69
2021/04/27 13:31:31;;;;;;;554.78;462.92;;;;;;;;;;5000173;28;20410;-70
2021/04/27 13:33:58;;;;;;;572.67;491.63;;;;;;;;;;5000108;28;20251;-70
2021/04/27 13:36:24;;;;;;;535.33;392.40;;;;;;;;;;4999109;28;20198;-69
2021/04/27 13:38:51;;;;;;;582.10;513.20;;;;;;;;;;5000349;28;20177;-68
2021/04/27 13:41:17;;;;;;;569.57;501.67;;;;;;;;;;4996736;28;20421;-68
2021/04/27 13:43:45;;;;;;;555.63;470.97;;;;;;;;;;4994189;28;20775;-69
2021/04/27 13:46:16;;;;;;;500.88;308.27;;;;;;;;;;4995013;28;20440;-71
2021/04/27 13:48:42;;;;;;;525.22;371.90;;;;;;;;;;4995895;28;20563;-69
2021/04/27 13:51:12;;;;;;;574.05;442.85;;;;;;;;;;4996826;28;20174;-69
2021/04/27 13:53:38;;;;;;;599.67;537.35;;;;;;;;;;4998997;28;20593;-69
2021/04/27 13:56:07;;;;;;;26.30;24.90;;;;;;;;;;5000272;28;20190;-68
2021/04/27 13:58:34;;;;;;;202.65;134.88;;;;;;;;;;5001349;28;20182;-69
2021/04/27 14:01:00;;;;;;;509.17;339.80;;;;;;;;;;4992432;28;20245;-69
2021/04/27 14:03:26;;;;;;;618.90;554.90;;;;;;;;;;4990276;28;20170;-69
2021/04/27 14:05:52;;;;;;;579.97;517.47;;;;;;;;;;4995074;28;20273;-69
2021/04/27 14:08:18;;;;;;;366.37;328.60;;;;;;;;;;5008882;28;20425;-68
2021/04/27 14:10:45;;;;;;;1.40;1.30;;;;;;;;;;5010083;28;20975;-68
2021/04/27 14:13:12;;;;;;;141.63;134.83;;;;;;;;;;4989928;28;20419;-69
2021/04/27 14:15:39;;;;;;;59.47;52.17;;;;;;;;;;4993889;28;20456;-68
2021/04/27 14:18:06;;;;;;;1.10;0.70;;;;;;;;;;4994330;28;20448;-69
2021/04/27 14:20:32;;;;;;;0.80;0.60;;;;;;;;;;4994353;28;20432;-69
2021/04/27 14:22:59;;;;;;;0.70;0.60;;;;;;;;;;4993943;28;20403;-69
2021/04/27 14:25:26;;;;;;;0.80;0.60;;;;;;;;;;5001098;28;20463;-69
2021/04/27 14:27:52;;;;;;;0.80;0.50;;;;;;;;;;4996114;28;20428;-69
2021/04/27 14:30:18;;;;;;;2.40;0.60;;;;;;;;;;4993916;28;20397;-68
2021/04/27 14:32:45;;;;;;;0.70;0.50;;;;;;;;;;4995856;28;20431;-59
2021/04/27 14:35:13;;;;;;;211.30;196.73;;;;;;;;;;4993873;28;20886;-69
2021/04/27 14:37:39;;;;;;;642.53;584.17;;;;;;;;;;4993741;28;20384;-67
2021/04/27 14:40:06;;;;;;;0.70;0.50;;;;;;;;;;4993337;28;20409;-70
2021/04/27 14:42:32;;;;;;;3.03;0.90;;;;;;;;;;4993576;28;20479;-52
2021/04/27 14:44:58;;;;;;;1.20;0.97;;;;;;;;;;4993310;28;20415;-69
2021/04/27 14:47:24;;;;;;;0.70;0.50;;;;;;;;;;4992766;28;20417;-70
2021/04/27 14:49:50;;;;;;;0.70;0.50;;;;;;;;;;4991887;28;20441;-66
2021/04/27 14:52:16;;;;;;;469.60;420.97;;;;;;;;;;4993446;28;20405;-65
2021/04/27 14:54:42;;;;;;;591.37;530.17;;;;;;;;;;4993313;28;20462;-66
2021/04/27 14:57:08;;;;;;;382.00;351.00;;;;;;;;;;4993710;28;20398;-69